sensor_id;sensor_type;location;lat;lon;timestamp;pressure;altitude;pressure_sealevel;temperature;humidity
62995;BME280;49086;52.300;4.850;2022-09-06T00:00:32;53226.78;;;-146.41;95.75
62995;BME280;49086;52.300;4.850;2022-09-06T00:03:15;53234.75;;;-146.41;97.21
62995;BME280;49086;52.300;4.850;2022-09-06T00:05:46;53234.75;;;-146.41;96.32
62995;BME280;49086;52.300;4.850;2022-09-06T00:08:25;53242.72;;;-146.41;97.60
62995;BME280;49086;52.300;4.850;2022-09-06T00:10:56;53210.84;;;-146.41;96.96
62995;BME280;49086;52.300;4.850;2022-09-06T00:13:46;53232.75;;;-146.41;96.70
62995;BME280;49086;52.300;4.850;2022-09-06T00:16:35;53240.75;;;-146.41;96.53
62995;BME280;49086;52.300;4.850;2022-09-06T00:19:29;53220.81;;;-146.41;96.79
62995;BME280;49086;52.300;4.850;2022-09-06T00:25:26;53246.72;;;-146.41;98.15
62995;BME280;49086;52.300;4.850;2022-09-06T00:28:29;53224.78;;;-146.41;100.00
62995;BME280;49086;52.300;4.850;2022-09-06T00:30:57;53216.81;;;-146.41;99.09
62995;BME280;49086;52.300;4.850;2022-09-06T00:33:26;53246.72;;;-146.41;97.42
62995;BME280;49086;52.300;4.850;2022-09-06T00:36:02;53212.84;;;-146.41;97.65
62995;BME280;49086;52.300;4.850;2022-09-06T00:38:30;53216.81;;;-146.41;98.63
62995;BME280;49086;52.300;4.850;2022-09-06T00:41:00;53204.84;;;-146.41;100.00
62995;BME280;49086;52.300;4.850;2022-09-06T00:43:34;53202.88;;;-146.41;100.00
62995;BME280;49086;52.300;4.850;2022-09-06T00:46:35;53198.88;;;-146.41;100.00
62995;BME280;49086;52.300;4.850;2022-09-06T00:49:10;53214.81;;;-146.41;99.42
62995;BME280;49086;52.300;4.850;2022-09-06T00:52:15;53226.78;;;-146.41;98.62
62995;BME280;49086;52.300;4.850;2022-09-06T00:55:21;53222.78;;;-146.41;99.28
62995;BME280;49086;52.300;4.850;2022-09-06T00:57:51;53252.69;;;-146.41;100.00
62995;BME280;49086;52.300;4.850;2022-09-06T01:04:05;53236.75;;;-146.41;100.00
62995;BME280;49086;52.300;4.850;2022-09-06T01:07:09;53222.78;;;-146.41;100.00
62995;BME280;49086;52.300;4.850;2022-09-06T01:36:17;53218.81;;;-146.41;100.00
62995;BME280;49086;52.300;4.850;2022-09-06T01:38:51;53264.66;;;-146.41;100.00
62995;BME280;49086;52.300;4.850;2022-09-06T01:41:35;53248.72;;;-146.41;100.00
62995;BME280;49086;52.300;4.850;2022-09-06T01:44:28;53262.66;;;-146.41;100.00
62995;BME280;49086;52.300;4.850;2022-09-06T02:06:30;53222.78;;;-146.41;100.00
62995;BME280;49086;52.300;4.850;2022-09-06T02:09:05;53264.66;;;-146.41;100.00
62995;BME280;49086;52.300;4.850;2022-09-06T02:11:49;53248.72;;;-146.41;100.00
62995;BME280;49086;52.300;4.850;2022-09-06T02:14:48;53260.66;;;-146.41;100.00
62995;BME280;49086;52.300;4.850;2022-09-06T02:17:51;53272.63;;;-146.41;100.00
62995;BME280;49086;52.300;4.850;2022-09-06T02:20:59;53250.69;;;-146.41;100.00
62995;BME280;49086;52.300;4.850;2022-09-06T02:23:51;53220.81;;;-146.41;100.00
62995;BME280;49086;52.300;4.850;2022-09-06T02:26:42;53278.59;;;-146.41;100.00
62995;BME280;49086;52.300;4.850;2022-09-06T02:29:37;53270.63;;;-146.41;100.00
62995;BME280;49086;52.300;4.850;2022-09-06T02:32:22;53270.63;;;-146.41;100.00
62995;BME280;49086;52.300;4.850;2022-09-06T02:35:07;53258.69;;;-146.41;100.00
62995;BME280;49086;52.300;4.850;2022-09-06T02:37:36;53270.63;;;-146.41;100.00
62995;BME280;49086;52.300;4.850;2022-09-06T02:40:11;53244.72;;;-146.41;100.00
62995;BME280;49086;52.300;4.850;2022-09-06T02:42:38;53250.69;;;-146.41;100.00
62995;BME280;49086;52.300;4.850;2022-09-06T02:45:04;53226.78;;;-146.41;100.00
62995;BME280;49086;52.300;4.850;2022-09-06T02:47:51;53246.72;;;-146.41;100.00
62995;BME280;49086;52.300;4.850;2022-09-06T02:51:04;53238.75;;;-146.41;100.00
62995;BME280;49086;52.300;4.850;2022-09-06T02:54:08;53220.81;;;-146.41;100.00
62995;BME280;49086;52.300;4.850;2022-09-06T02:57:20;53268.63;;;-146.41;100.00
62995;BME280;49086;52.300;4.850;2022-09-06T02:59:53;53234.75;;;-146.41;100.00
62995;BME280;49086;52.300;4.850;2022-09-06T03:02:44;53258.69;;;-146.41;100.00
62995;BME280;49086;52.300;4.850;2022-09-06T03:05:26;53278.59;;;-146.41;100.00
62995;BME280;49086;52.300;4.850;2022-09-06T03:08:27;53292.56;;;-146.41;100.00
62995;BME280;49086;52.300;4.850;2022-09-06T03:11:00;53276.63;;;-146.41;100.00
62995;BME280;49086;52.300;4.850;2022-09-06T03:14:05;53258.69;;;-146.41;100.00
62995;BME280;49086;52.300;4.850;2022-09-06T03:16:35;53286.59;;;-146.41;100.00
62995;BME280;49086;52.300;4.850;2022-09-06T03:19:32;53260.66;;;-146.41;100.00
62995;BME280;49086;52.300;4.850;2022-09-06T03:22:01;53254.69;;;-146.41;100.00
62995;BME280;49086;52.300;4.850;2022-09-06T03:24:27;53276.63;;;-146.41;100.00
62995;BME280;49086;52.300;4.850;2022-09-06T03:27:21;53210.84;;;-146.41;100.00
62995;BME280;49086;52.300;4.850;2022-09-06T03:29:47;53252.69;;;-146.41;100.00
62995;BME280;49086;52.300;4.850;2022-09-06T03:32:15;53306.50;;;-146.41;100.00
62995;BME280;49086;52.300;4.850;2022-09-06T03:35:04;53254.69;;;-146.41;100.00
62995;BME280;49086;52.300;4.850;2022-09-06T03:37:35;53270.63;;;-146.41;100.00
62995;BME280;49086;52.300;4.850;2022-09-06T03:40:18;53222.78;;;-146.41;100.00
62995;BME280;49086;52.300;4.850;2022-09-06T03:42:48;53262.66;;;-146.41;100.00
62995;BME280;49086;52.300;4.850;2022-09-06T03:45:54;53270.63;;;-146.41;100.00
62995;BME280;49086;52.300;4.850;2022-09-06T03:48:30;53270.63;;;-146.41;100.00
62995;BME280;49086;52.300;4.850;2022-09-06T03:50:58;53302.53;;;-146.41;100.00
62995;BME280;49086;52.300;4.850;2022-09-06T03:53:32;53290.56;;;-146.41;100.00
62995;BME280;49086;52.300;4.850;2022-09-06T03:56:00;53252.69;;;-146.41;100.00
62995;BME280;49086;52.300;4.850;2022-09-06T03:58:50;53290.56;;;-146.41;100.00
62995;BME280;49086;52.300;4.850;2022-09-06T04:01:20;53282.59;;;-146.41;100.00
62995;BME280;49086;52.300;4.850;2022-09-06T04:03:51;53278.59;;;-146.41;100.00
62995;BME280;49086;52.300;4.850;2022-09-06T04:06:38;53236.75;;;-146.41;100.00
62995;BME280;49086;52.300;4.850;2022-09-06T04:09:06;53290.56;;;-146.41;100.00
62995;BME280;49086;52.300;4.850;2022-09-06T04:11:55;53270.63;;;-146.41;100.00
62995;BME280;49086;52.300;4.850;2022-09-06T04:14:23;53268.63;;;-146.41;100.00
62995;BME280;49086;52.300;4.850;2022-09-06T04:16:51;53290.56;;;-146.41;100.00
62995;BME280;49086;52.300;4.850;2022-09-06T04:19:18;53278.59;;;-146.41;100.00
62995;BME280;49086;52.300;4.850;2022-09-06T04:21:48;53336.41;;;-146.41;100.00
62995;BME280;49086;52.300;4.850;2022-09-06T04:24:15;53266.66;;;-146.41;100.00
62995;BME280;49086;52.300;4.850;2022-09-06T04:26:51;53310.50;;;-146.41;100.00
62995;BME280;49086;52.300;4.850;2022-09-06T04:29:19;53270.63;;;-146.41;100.00
62995;BME280;49086;52.300;4.850;2022-09-06T04:31:46;53280.59;;;-146.41;100.00
62995;BME280;49086;52.300;4.850;2022-09-06T04:34:34;53288.56;;;-146.41;100.00
62995;BME280;49086;52.300;4.850;2022-09-06T04:37:06;53256.69;;;-146.41;100.00
62995;BME280;49086;52.300;4.850;2022-09-06T04:39:31;53270.63;;;-146.41;100.00
62995;BME280;49086;52.300;4.850;2022-09-06T04:41:58;53276.63;;;-146.41;100.00
62995;BME280;49086;52.300;4.850;2022-09-06T04:44:33;53280.59;;;-146.41;100.00
62995;BME280;49086;52.300;4.850;2022-09-06T04:47:23;53322.47;;;-146.41;100.00
62995;BME280;49086;52.300;4.850;2022-09-06T04:49:53;53284.59;;;-146.41;100.00
62995;BME280;49086;52.300;4.850;2022-09-06T04:52:20;53300.53;;;-146.41;100.00
62995;BME280;49086;52.300;4.850;2022-09-06T04:54:48;53260.66;;;-146.41;100.00
62995;BME280;49086;52.300;4.850;2022-09-06T04:57:21;53306.50;;;-146.41;100.00
62995;BME280;49086;52.300;4.850;2022-09-06T04:59:48;53240.75;;;-146.41;100.00
62995;BME280;49086;52.300;4.850;2022-09-06T05:02:33;53296.56;;;-146.41;100.00
62995;BME280;49086;52.300;4.850;2022-09-06T05:05:26;53300.53;;;-146.41;100.00
62995;BME280;49086;52.300;4.850;2022-09-06T05:07:54;53274.63;;;-146.41;100.00
62995;BME280;49086;52.300;4.850;2022-09-06T05:10:23;53268.63;;;-146.41;100.00
62995;BME280;49086;52.300;4.850;2022-09-06T05:13:13;53282.59;;;-146.41;100.00
62995;BME280;49086;52.300;4.850;2022-09-06T05:15:47;53306.50;;;-146.41;100.00
62995;BME280;49086;52.300;4.850;2022-09-06T05:18:18;53288.56;;;-146.41;100.00
62995;BME280;49086;52.300;4.850;2022-09-06T05:20:54;53252.69;;;-146.41;100.00
62995;BME280;49086;52.300;4.850;2022-09-06T05:23:25;53294.56;;;-146.41;100.00
62995;BME280;49086;52.300;4.850;2022-09-06T05:25:52;53290.56;;;-146.41;100.00
62995;BME280;49086;52.300;4.850;2022-09-06T05:28:18;53284.59;;;-146.41;100.00
62995;BME280;49086;52.300;4.850;2022-09-06T05:30:49;53254.69;;;-146.41;100.00
62995;BME280;49086;52.300;4.850;2022-09-06T05:33:23;53294.56;;;-146.41;100.00
62995;BME280;49086;52.300;4.850;2022-09-06T05:35:56;53276.63;;;-146.41;100.00
62995;BME280;49086;52.300;4.850;2022-09-06T05:38:42;53282.59;;;-146.41;100.00
62995;BME280;49086;52.300;4.850;2022-09-06T05:41:10;53244.72;;;-146.41;100.00
62995;BME280;49086;52.300;4.850;2022-09-06T05:43:39;53284.59;;;-146.41;100.00
62995;BME280;49086;52.300;4.850;2022-09-06T05:46:04;53270.63;;;-146.41;100.00
62995;BME280;49086;52.300;4.850;2022-09-06T05:48:35;53262.66;;;-146.41;100.00
62995;BME280;49086;52.300;4.850;2022-09-06T05:51:06;53264.66;;;-146.41;100.00
62995;BME280;49086;52.300;4.850;2022-09-06T05:53:37;53302.53;;;-146.41;100.00
62995;BME280;49086;52.300;4.850;2022-09-06T05:56:06;53290.56;;;-146.41;100.00
62995;BME280;49086;52.300;4.850;2022-09-06T05:58:35;53278.59;;;-146.41;100.00
62995;BME280;49086;52.300;4.850;2022-09-06T06:01:17;53262.66;;;-146.41;100.00
62995;BME280;49086;52.300;4.850;2022-09-06T06:04:14;53224.78;;;-146.41;100.00
62995;BME280;49086;52.300;4.850;2022-09-06T06:06:41;53254.69;;;-146.41;100.00
62995;BME280;49086;52.300;4.850;2022-09-06T06:09:12;53254.69;;;-146.41;100.00
62995;BME280;49086;52.300;4.850;2022-09-06T06:11:38;53246.72;;;-146.41;98.17
62995;BME280;49086;52.300;4.850;2022-09-06T06:14:03;53254.69;;;-146.41;100.00
62995;BME280;49086;52.300;4.850;2022-09-06T06:16:30;53234.75;;;-146.41;99.29
62995;BME280;49086;52.300;4.850;2022-09-06T06:18:57;53266.66;;;-146.41;99.75
62995;BME280;49086;52.300;4.850;2022-09-06T06:21:26;53268.63;;;-146.41;100.00
62995;BME280;49086;52.300;4.850;2022-09-06T06:24:15;53240.75;;;-146.41;100.00
62995;BME280;49086;52.300;4.850;2022-09-06T06:26:45;53258.69;;;-146.41;100.00
62995;BME280;49086;52.300;4.850;2022-09-06T06:29:19;53258.69;;;-146.41;100.00
62995;BME280;49086;52.300;4.850;2022-09-06T06:31:45;53252.69;;;-146.41;100.00
62995;BME280;49086;52.300;4.850;2022-09-06T06:34:12;53252.69;;;-146.41;100.00
62995;BME280;49086;52.300;4.850;2022-09-06T06:36:38;53248.72;;;-146.41;100.00
62995;BME280;49086;52.300;4.850;2022-09-06T06:39:06;53284.59;;;-146.41;100.00
62995;BME280;49086;52.300;4.850;2022-09-06T06:41:34;53242.72;;;-146.41;100.00
62995;BME280;49086;52.300;4.850;2022-09-06T06:44:04;53244.72;;;-146.41;100.00
62995;BME280;49086;52.300;4.850;2022-09-06T06:46:40;53264.66;;;-146.41;100.00
62995;BME280;49086;52.300;4.850;2022-09-06T06:49:06;53248.72;;;-146.41;100.00
62995;BME280;49086;52.300;4.850;2022-09-06T06:51:58;53244.72;;;-146.41;100.00
62995;BME280;49086;52.300;4.850;2022-09-06T06:54:36;53270.63;;;-146.41;100.00
62995;BME280;49086;52.300;4.850;2022-09-06T06:57:23;53268.63;;;-146.41;100.00
62995;BME280;49086;52.300;4.850;2022-09-06T06:59:51;53210.84;;;-146.41;100.00
62995;BME280;49086;52.300;4.850;2022-09-06T07:02:32;53238.75;;;-146.41;100.00
62995;BME280;49086;52.300;4.850;2022-09-06T07:05:21;53226.78;;;-146.41;100.00
62995;BME280;49086;52.300;4.850;2022-09-06T07:08:25;53238.75;;;-146.41;99.88
62995;BME280;49086;52.300;4.850;2022-09-06T07:11:56;53254.69;;;-146.41;99.32
62995;BME280;49086;52.300;4.850;2022-09-06T07:15:10;53274.63;;;-146.41;98.89
62995;BME280;49086;52.300;4.850;2022-09-06T07:17:42;53256.69;;;-146.41;98.91
62995;BME280;49086;52.300;4.850;2022-09-06T07:20:08;53228.78;;;-146.41;98.84
62995;BME280;49086;52.300;4.850;2022-09-06T07:23:13;53270.63;;;-146.41;98.23
62995;BME280;49086;52.300;4.850;2022-09-06T07:26:05;53266.66;;;-146.41;96.95
62995;BME280;49086;52.300;4.850;2022-09-06T07:28:52;53254.69;;;-146.41;97.39
62995;BME280;49086;52.300;4.850;2022-09-06T07:31:43;53270.63;;;-146.41;97.22
62995;BME280;49086;52.300;4.850;2022-09-06T07:34:23;53246.72;;;-146.41;97.01
62995;BME280;49086;52.300;4.850;2022-09-06T07:37:02;53214.81;;;-146.41;96.77
62995;BME280;49086;52.300;4.850;2022-09-06T07:39:29;53230.78;;;-146.41;96.23
62995;BME280;49086;52.300;4.850;2022-09-06T07:42:10;53218.81;;;-146.41;96.43
62995;BME280;49086;52.300;4.850;2022-09-06T07:44:50;53228.78;;;-146.41;95.65
62995;BME280;49086;52.300;4.850;2022-09-06T07:47:21;53234.75;;;-146.41;95.50
62995;BME280;49086;52.300;4.850;2022-09-06T07:50:05;53222.78;;;-146.41;94.29
62995;BME280;49086;52.300;4.850;2022-09-06T07:52:32;53234.75;;;-146.41;93.18
62995;BME280;49086;52.300;4.850;2022-09-06T07:55:00;53234.75;;;-146.41;92.09
62995;BME280;49086;52.300;4.850;2022-09-06T08:00:36;53246.72;;;-146.41;92.19
62995;BME280;49086;52.300;4.850;2022-09-06T08:03:07;53224.78;;;-146.41;92.25
62995;BME280;49086;52.300;4.850;2022-09-06T08:05:47;53226.78;;;-146.41;91.58
62995;BME280;49086;52.300;4.850;2022-09-06T08:08:23;53210.84;;;-146.41;92.58
62995;BME280;49086;52.300;4.850;2022-09-06T08:10:51;53192.91;;;-146.41;91.72
62995;BME280;49086;52.300;4.850;2022-09-06T08:13:38;53218.81;;;-146.41;91.86
62995;BME280;49086;52.300;4.850;2022-09-06T08:16:17;53216.81;;;-146.41;91.95
62995;BME280;49086;52.300;4.850;2022-09-06T08:19:29;53190.91;;;-146.41;91.89
62995;BME280;49086;52.300;4.850;2022-09-06T08:22:26;53182.94;;;-146.41;90.82
62995;BME280;49086;52.300;4.850;2022-09-06T08:25:19;53228.78;;;-146.41;90.11
62995;BME280;49086;52.300;4.850;2022-09-06T08:27:48;53196.88;;;-146.41;90.11
62995;BME280;49086;52.300;4.850;2022-09-06T08:30:18;53190.91;;;-146.41;90.74
62995;BME280;49086;52.300;4.850;2022-09-06T08:32:44;53220.81;;;-146.41;90.80
62995;BME280;49086;52.300;4.850;2022-09-06T08:35:15;53159.00;;;-146.41;89.08
62995;BME280;49086;52.300;4.850;2022-09-06T08:37:41;53182.94;;;-146.41;89.28
62995;BME280;49086;52.300;4.850;2022-09-06T08:40:11;53151.03;;;-146.41;88.40
62995;BME280;49086;52.300;4.850;2022-09-06T08:42:47;53174.97;;;-146.41;88.01
62995;BME280;49086;52.300;4.850;2022-09-06T08:45:16;53188.91;;;-146.41;87.47
62995;BME280;49086;52.300;4.850;2022-09-06T08:47:48;53186.91;;;-146.41;87.85
62995;BME280;49086;52.300;4.850;2022-09-06T08:50:18;53174.97;;;-146.41;86.93
62995;BME280;49086;52.300;4.850;2022-09-06T08:53:12;53168.97;;;-146.41;87.46
62995;BME280;49086;52.300;4.850;2022-09-06T08:59:10;53200.88;;;-146.41;86.50
62995;BME280;49086;52.300;4.850;2022-09-06T09:02:19;53174.97;;;-146.41;86.54
62995;BME280;49086;52.300;4.850;2022-09-06T09:05:12;53167.00;;;-146.41;84.61
62995;BME280;49086;52.300;4.850;2022-09-06T09:07:44;53194.88;;;-146.41;83.58
62995;BME280;49086;52.300;4.850;2022-09-06T09:10:27;53139.09;;;-146.41;83.63
62995;BME280;49086;52.300;4.850;2022-09-06T09:13:42;53127.13;;;-146.41;82.15
62995;BME280;49086;52.300;4.850;2022-09-06T09:16:10;53170.97;;;-146.41;80.67
62995;BME280;49086;52.300;4.850;2022-09-06T09:18:39;53143.06;;;-146.41;80.59
62995;BME280;49086;52.300;4.850;2022-09-06T09:21:07;53127.13;;;-146.41;79.98
62995;BME280;49086;52.300;4.850;2022-09-06T09:23:35;53176.94;;;-146.41;79.28
62995;BME280;49086;52.300;4.850;2022-09-06T09:26:16;53127.13;;;-146.41;80.38
62995;BME280;49086;52.300;4.850;2022-09-06T09:31:47;53113.16;;;-146.41;80.58
62995;BME280;49086;52.300;4.850;2022-09-06T09:34:33;53161.00;;;-146.41;79.38
62995;BME280;49086;52.300;4.850;2022-09-06T09:37:23;53133.09;;;-146.41;79.89
62995;BME280;49086;52.300;4.850;2022-09-06T09:39:58;53083.28;;;-146.41;78.23
62995;BME280;49086;52.300;4.850;2022-09-06T09:42:30;53103.19;;;-146.41;78.49
62995;BME280;49086;52.300;4.850;2022-09-06T09:45:22;53137.09;;;-146.41;78.65
62995;BME280;49086;52.300;4.850;2022-09-06T09:47:53;53147.06;;;-146.41;78.99
62995;BME280;49086;52.300;4.850;2022-09-06T09:50:31;53119.16;;;-146.41;78.38
62995;BME280;49086;52.300;4.850;2022-09-06T09:53:20;53155.03;;;-146.41;78.12
62995;BME280;49086;52.300;4.850;2022-09-06T09:55:56;53099.22;;;-146.41;76.42
62995;BME280;49086;52.300;4.850;2022-09-06T09:58:29;53115.16;;;-146.41;75.64
62995;BME280;49086;52.300;4.850;2022-09-06T10:01:20;53087.25;;;-146.41;76.18
62995;BME280;49086;52.300;4.850;2022-09-06T10:04:19;53105.19;;;-146.41;77.62
62995;BME280;49086;52.300;4.850;2022-09-06T10:06:47;53109.19;;;-146.41;76.79
62995;BME280;49086;52.300;4.850;2022-09-06T10:09:47;53107.19;;;-146.41;76.07
62995;BME280;49086;52.300;4.850;2022-09-06T10:12:29;53091.25;;;-146.41;74.81
62995;BME280;49086;52.300;4.850;2022-09-06T10:14:58;53089.25;;;-146.41;75.25
62995;BME280;49086;52.300;4.850;2022-09-06T10:17:51;53075.28;;;-146.41;74.36
62995;BME280;49086;52.300;4.850;2022-09-06T10:20:18;53095.22;;;-146.41;74.09
62995;BME280;49086;52.300;4.850;2022-09-06T10:29:08;53095.22;;;-146.41;75.39
62995;BME280;49086;52.300;4.850;2022-09-06T10:34:50;53075.28;;;-146.41;75.32
62995;BME280;49086;52.300;4.850;2022-09-06T10:40:45;53121.13;;;-146.41;75.67
62995;BME280;49086;52.300;4.850;2022-09-06T10:43:40;53097.22;;;-146.41;75.66
62995;BME280;49086;52.300;4.850;2022-09-06T10:46:22;53091.25;;;-146.41;72.68
62995;BME280;49086;52.300;4.850;2022-09-06T10:48:51;53127.13;;;-146.41;73.23
62995;BME280;49086;52.300;4.850;2022-09-06T10:51:51;53103.19;;;-146.41;74.72
62995;BME280;49086;52.300;4.850;2022-09-06T10:54:38;53127.13;;;-146.41;72.84
62995;BME280;49086;52.300;4.850;2022-09-06T10:57:20;53055.38;;;-146.41;71.84
62995;BME280;49086;52.300;4.850;2022-09-06T11:00:04;53065.34;;;-146.41;70.94
62995;BME280;49086;52.300;4.850;2022-09-06T11:03:00;53107.19;;;-146.41;71.61
62995;BME280;49086;52.300;4.850;2022-09-06T11:05:42;52999.56;;;-146.41;71.45
62995;BME280;49086;52.300;4.850;2022-09-06T11:08:31;53075.28;;;-146.41;71.14
62995;BME280;49086;52.300;4.850;2022-09-06T11:11:20;53019.50;;;-146.41;70.10
62995;BME280;49086;52.300;4.850;2022-09-06T11:13:47;53015.50;;;-146.41;67.25
62995;BME280;49086;52.300;4.850;2022-09-06T11:16:23;53029.47;;;-146.41;66.45
62995;BME280;49086;52.300;4.850;2022-09-06T11:19:21;53111.19;;;-146.41;68.62
62995;BME280;49086;52.300;4.850;2022-09-06T11:22:18;53029.47;;;-146.41;68.36
62995;BME280;49086;52.300;4.850;2022-09-06T11:28:02;53029.47;;;-146.41;67.73
62995;BME280;49086;52.300;4.850;2022-09-06T11:30:33;53011.50;;;-146.41;66.85
62995;BME280;49086;52.300;4.850;2022-09-06T11:33:30;53035.44;;;-146.41;67.44
62995;BME280;49086;52.300;4.850;2022-09-06T11:36:34;53031.44;;;-146.41;66.88
62995;BME280;49086;52.300;4.850;2022-09-06T11:39:39;53049.38;;;-146.41;66.94
62995;BME280;49086;52.300;4.850;2022-09-06T11:46:05;53021.47;;;-146.41;65.64
62995;BME280;49086;52.300;4.850;2022-09-06T11:49:36;53021.47;;;-146.41;65.61
62995;BME280;49086;52.300;4.850;2022-09-06T11:53:17;53039.41;;;-146.41;65.00
62995;BME280;49086;52.300;4.850;2022-09-06T11:55:48;52989.59;;;-146.41;65.55
62995;BME280;49086;52.300;4.850;2022-09-06T11:58:53;52993.56;;;-146.41;64.91
62995;BME280;49086;52.300;4.850;2022-09-06T12:10:55;52975.63;;;-146.41;63.68
62995;BME280;49086;52.300;4.850;2022-09-06T12:13:53;53025.47;;;-146.41;64.07
62995;BME280;49086;52.300;4.850;2022-09-06T12:16:22;53015.50;;;-146.41;64.03
62995;BME280;49086;52.300;4.850;2022-09-06T12:18:54;53015.50;;;-146.41;63.78
62995;BME280;49086;52.300;4.850;2022-09-06T12:21:43;53069.31;;;-146.41;62.56
62995;BME280;49086;52.300;4.850;2022-09-06T12:27:37;53035.44;;;-146.41;64.61
62995;BME280;49086;52.300;4.850;2022-09-06T12:30:12;53011.50;;;-146.41;63.79
62995;BME280;49086;52.300;4.850;2022-09-06T12:32:47;53031.44;;;-146.41;63.27
62995;BME280;49086;52.300;4.850;2022-09-06T12:35:22;53023.47;;;-146.41;61.55
62995;BME280;49086;52.300;4.850;2022-09-06T12:40:20;52983.63;;;-146.41;63.80
62995;BME280;49086;52.300;4.850;2022-09-06T12:42:55;52993.56;;;-146.41;63.23
62995;BME280;49086;52.300;4.850;2022-09-06T12:45:33;53073.31;;;-146.41;62.86
62995;BME280;49086;52.300;4.850;2022-09-06T12:51:09;53023.47;;;-146.41;62.14
62995;BME280;49086;52.300;4.850;2022-09-06T12:53:56;53033.44;;;-146.41;62.76
62995;BME280;49086;52.300;4.850;2022-09-06T12:56:28;53037.44;;;-146.41;62.81
62995;BME280;49086;52.300;4.850;2022-09-06T12:59:20;52997.56;;;-146.41;61.96
62995;BME280;49086;52.300;4.850;2022-09-06T13:01:58;53055.38;;;-146.41;63.69
62995;BME280;49086;52.300;4.850;2022-09-06T13:05:13;53023.47;;;-146.41;63.35
62995;BME280;49086;52.300;4.850;2022-09-06T13:07:52;53055.38;;;-146.41;62.49
62995;BME280;49086;52.300;4.850;2022-09-06T13:10:38;53011.50;;;-146.41;62.06
62995;BME280;49086;52.300;4.850;2022-09-06T13:13:06;52993.56;;;-146.41;61.35
62995;BME280;49086;52.300;4.850;2022-09-06T13:15:37;53013.50;;;-146.41;62.13
62995;BME280;49086;52.300;4.850;2022-09-06T13:18:37;53035.44;;;-146.41;61.67
62995;BME280;49086;52.300;4.850;2022-09-06T13:21:28;53003.53;;;-146.41;63.03
62995;BME280;49086;52.300;4.850;2022-09-06T13:23:59;53051.38;;;-146.41;60.56
62995;BME280;49086;52.300;4.850;2022-09-06T13:26:51;53009.53;;;-146.41;61.01
62995;BME280;49086;52.300;4.850;2022-09-06T13:29:30;52995.56;;;-146.41;60.67
62995;BME280;49086;52.300;4.850;2022-09-06T13:32:26;53003.53;;;-146.41;60.59
62995;BME280;49086;52.300;4.850;2022-09-06T13:34:54;52977.63;;;-146.41;58.21
62995;BME280;49086;52.300;4.850;2022-09-06T13:37:26;52953.72;;;-146.41;56.81
62995;BME280;49086;52.300;4.850;2022-09-06T13:39:56;53009.53;;;-146.41;56.12
62995;BME280;49086;52.300;4.850;2022-09-06T13:42:34;53011.50;;;-146.41;55.25
62995;BME280;49086;52.300;4.850;2022-09-06T13:45:29;53001.56;;;-146.41;55.74
62995;BME280;49086;52.300;4.850;2022-09-06T13:48:24;52979.63;;;-146.41;53.92
62995;BME280;49086;52.300;4.850;2022-09-06T13:50:52;53047.41;;;-146.41;54.98
62995;BME280;49086;52.300;4.850;2022-09-06T13:53:21;53007.53;;;-146.41;55.15
62995;BME280;49086;52.300;4.850;2022-09-06T13:56:02;53043.41;;;-146.41;55.13
62995;BME280;49086;52.300;4.850;2022-09-06T13:58:36;52979.63;;;-146.41;55.04
62995;BME280;49086;52.300;4.850;2022-09-06T14:01:14;52979.63;;;-146.41;55.26
62995;BME280;49086;52.300;4.850;2022-09-06T14:03:49;53011.50;;;-146.41;53.70
62995;BME280;49086;52.300;4.850;2022-09-06T14:06:15;53015.50;;;-146.41;54.41
62995;BME280;49086;52.300;4.850;2022-09-06T14:08:42;53057.34;;;-146.41;54.10
62995;BME280;49086;52.300;4.850;2022-09-06T14:11:10;53035.44;;;-146.41;54.30
62995;BME280;49086;52.300;4.850;2022-09-06T14:13:37;53041.41;;;-146.41;55.43
62995;BME280;49086;52.300;4.850;2022-09-06T14:16:10;53041.41;;;-146.41;55.67
62995;BME280;49086;52.300;4.850;2022-09-06T14:18:37;52991.59;;;-146.41;54.17
62995;BME280;49086;52.300;4.850;2022-09-06T14:21:07;53011.50;;;-146.41;54.43
62995;BME280;49086;52.300;4.850;2022-09-06T14:23:50;53013.50;;;-146.41;52.39
62995;BME280;49086;52.300;4.850;2022-09-06T14:26:20;52975.63;;;-146.41;51.80
62995;BME280;49086;52.300;4.850;2022-09-06T14:28:47;52957.69;;;-146.41;49.67
62995;BME280;49086;52.300;4.850;2022-09-06T14:31:19;52985.59;;;-146.41;49.50
62995;BME280;49086;52.300;4.850;2022-09-06T14:33:47;52963.69;;;-146.41;50.28
62995;BME280;49086;52.300;4.850;2022-09-06T14:36:15;52995.56;;;-146.41;50.22
62995;BME280;49086;52.300;4.850;2022-09-06T14:38:44;52995.56;;;-146.41;48.60
62995;BME280;49086;52.300;4.850;2022-09-06T14:41:12;52945.75;;;-146.41;48.76
62995;BME280;49086;52.300;4.850;2022-09-06T14:44:01;52959.69;;;-146.41;48.97
62995;BME280;49086;52.300;4.850;2022-09-06T14:46:29;52987.59;;;-146.41;52.80
62995;BME280;49086;52.300;4.850;2022-09-06T14:49:01;52973.66;;;-146.41;49.14
62995;BME280;49086;52.300;4.850;2022-09-06T14:51:40;52981.63;;;-146.41;50.49
62995;BME280;49086;52.300;4.850;2022-09-06T14:54:10;52967.66;;;-146.41;49.62
62995;BME280;49086;52.300;4.850;2022-09-06T14:56:41;52959.69;;;-146.41;48.14
62995;BME280;49086;52.300;4.850;2022-09-06T14:59:26;52957.69;;;-146.41;46.30
62995;BME280;49086;52.300;4.850;2022-09-06T15:02:01;52891.94;;;-146.41;45.51
62995;BME280;49086;52.300;4.850;2022-09-06T15:04:40;52925.81;;;-146.41;45.26
62995;BME280;49086;52.300;4.850;2022-09-06T15:07:10;52925.81;;;-146.41;46.12
62995;BME280;49086;52.300;4.850;2022-09-06T15:09:40;52955.72;;;-146.41;45.84
62995;BME280;49086;52.300;4.850;2022-09-06T15:12:12;52947.72;;;-146.41;44.87
62995;BME280;49086;52.300;4.850;2022-09-06T15:14:37;52987.59;;;-146.41;45.78
62995;BME280;49086;52.300;4.850;2022-09-06T15:17:05;53021.47;;;-146.41;46.63